createdAt,value
2022-08-29T00:02:58.195Z,14.5
2022-08-29T00:08:02.575Z,14.5
2022-08-29T00:13:07.110Z,14.5
2022-08-29T00:18:11.655Z,14.2
2022-08-29T00:23:15.217Z,14
2022-08-29T00:28:19.697Z,13.9
2022-08-29T00:33:24.229Z,13.7
2022-08-29T00:38:28.514Z,13.8
2022-08-29T00:43:32.372Z,13.7
2022-08-29T00:48:37.071Z,13.4
2022-08-29T00:53:40.408Z,13.4
2022-08-29T00:58:44.972Z,13.4
2022-08-29T01:03:49.470Z,13.5
2022-08-29T01:08:57.404Z,13.3
2022-08-29T01:13:57.559Z,13.6
2022-08-29T01:19:02.131Z,13.6
2022-08-29T01:24:06.633Z,13.4
2022-08-29T01:29:10.171Z,13.5
2022-08-29T01:34:14.753Z,13.6
2022-08-29T01:39:19.261Z,13.7
2022-08-29T01:44:22.817Z,13.6
2022-08-29T01:49:27.364Z,13.5
2022-08-29T01:54:31.906Z,13.2
2022-08-29T01:59:35.430Z,13.3
2022-08-29T02:04:39.983Z,13.2
2022-08-29T02:09:45.798Z,12.9
2022-08-29T02:14:48.058Z,12.9
2022-08-29T02:19:52.582Z,13
2022-08-29T02:24:57.089Z,13
2022-08-29T02:30:01.639Z,13.1
2022-08-29T02:35:05.180Z,13.2
2022-08-29T02:40:09.758Z,13.3
2022-08-29T02:45:14.272Z,13.2
2022-08-29T02:50:17.809Z,13.2
2022-08-29T02:55:22.374Z,13.1
2022-08-29T03:00:26.887Z,12.9
2022-08-29T03:05:30.445Z,12.7
2022-08-29T03:10:35.001Z,12.8
2022-08-29T03:15:38.528Z,12.7
2022-08-29T03:20:43.068Z,12.8
2022-08-29T03:25:47.588Z,12.9
2022-08-29T03:30:51.322Z,12.8
2022-08-29T03:35:55.658Z,12.7
2022-08-29T03:41:00.188Z,12.9
2022-08-29T03:46:03.863Z,12.9
2022-08-29T03:51:08.282Z,12.9
2022-08-29T03:56:18.191Z,12.9
2022-08-29T04:01:16.389Z,12.9
2022-08-29T04:06:20.872Z,13
2022-08-29T04:11:25.439Z,12.9
2022-08-29T04:16:30.920Z,12.7
2022-08-29T04:21:33.527Z,12.5
2022-08-29T04:26:38.188Z,12.3
2022-08-29T04:31:42.663Z,12
2022-08-29T04:36:46.144Z,11.3
2022-08-29T04:41:50.715Z,10.7
2022-08-29T04:46:55.255Z,10.8
2022-08-29T04:51:58.741Z,10.9
2022-08-29T04:57:03.264Z,11
2022-08-29T05:02:07.838Z,11.2
2022-08-29T05:07:11.382Z,11.4
2022-08-29T05:12:15.901Z,11.7
2022-08-29T05:17:20.435Z,11.8
2022-08-29T05:22:25.011Z,12
2022-08-29T05:27:28.535Z,12.2
2022-08-29T05:32:33.030Z,12.4
2022-08-29T05:37:37.591Z,12.7
2022-08-29T05:42:41.132Z,13
2022-08-29T05:47:45.690Z,13.3
2022-08-29T05:52:50.206Z,14
2022-08-29T05:57:53.761Z,14.6
2022-08-29T06:02:58.468Z,15.1
2022-08-29T06:08:02.813Z,15.8
2022-08-29T06:13:06.384Z,16.4
2022-08-29T06:18:10.959Z,16.1
2022-08-29T06:23:15.432Z,16.3
2022-08-29T06:28:23.927Z,16.1
2022-08-29T06:33:23.535Z,16.4
2022-08-29T06:38:28.085Z,16.1
2022-08-29T06:43:32.595Z,16.7
2022-08-29T06:48:36.150Z,17
2022-08-29T06:53:40.811Z,17.1
2022-08-29T06:58:45.205Z,16.1
2022-08-29T07:03:48.745Z,16
2022-08-29T07:08:55.982Z,15.9
2022-08-29T07:13:57.815Z,16.4
2022-08-29T07:19:01.364Z,16.8
2022-08-29T07:24:05.934Z,17
2022-08-29T07:29:09.445Z,17.1
2022-08-29T07:34:14.104Z,18.2
2022-08-29T07:39:18.520Z,19.5
2022-08-29T07:44:22.098Z,19.3
2022-08-29T07:49:36.067Z,20.6
2022-08-29T07:54:31.138Z,21.4
2022-08-29T07:59:34.682Z,22.3
2022-08-29T08:04:39.244Z,22.2
2022-08-29T08:09:43.896Z,23.1
2022-08-29T08:14:48.334Z,23.3
2022-08-29T08:19:51.830Z,23
2022-08-29T08:24:56.368Z,21.2
2022-08-29T08:30:00.913Z,21.6
2022-08-29T08:35:04.470Z,21.9
2022-08-29T08:40:09.164Z,23.5
2022-08-29T08:45:13.528Z,23.4
2022-08-29T08:50:17.116Z,21.7
2022-08-29T08:55:21.621Z,22.1
2022-08-29T09:00:26.168Z,22.2
2022-08-29T09:05:29.753Z,22.1
2022-08-29T09:10:34.238Z,22.6
2022-08-29T09:15:38.780Z,22.5
2022-08-29T09:20:43.359Z,24.3
2022-08-29T09:25:46.927Z,25.3
2022-08-29T09:30:51.596Z,25.6
2022-08-29T09:35:55.943Z,25
2022-08-29T09:40:59.527Z,24.5
2022-08-29T09:46:04.110Z,24.9
2022-08-29T09:51:08.578Z,26.7
2022-08-29T09:56:12.167Z,24.3
2022-08-29T10:01:16.905Z,26
2022-08-29T10:06:21.219Z,22.7
2022-08-29T10:11:24.778Z,24.6
2022-08-29T10:16:29.397Z,26.2
2022-08-29T10:21:33.870Z,25.8
2022-08-29T10:26:38.409Z,23.3
2022-08-29T10:31:42.070Z,23.9
2022-08-29T10:36:46.466Z,24.4
2022-08-29T10:41:51.034Z,27.3
2022-08-29T10:46:54.603Z,27.4
2022-08-29T10:51:59.152Z,27.7
2022-08-29T10:57:03.679Z,27
2022-08-29T11:02:07.232Z,25.6
2022-08-29T11:07:11.737Z,27.5
2022-08-29T11:12:17.304Z,26.7
2022-08-29T11:17:19.843Z,24.1
2022-08-29T11:22:24.397Z,24.8
2022-08-29T11:27:28.897Z,25.3
2022-08-29T11:32:36.010Z,24
2022-08-29T11:37:37.036Z,26.6
2022-08-29T11:42:55.975Z,28.8
2022-08-29T11:47:45.135Z,27.5
2022-08-29T11:52:49.661Z,27.4
2022-08-29T11:57:53.208Z,28
2022-08-29T12:02:57.959Z,26.3
2022-08-29T12:08:14.521Z,27.6
2022-08-29T12:13:07.078Z,28.1
2022-08-29T12:18:10.595Z,28.3
2022-08-29T12:23:15.428Z,26.1
2022-08-29T12:28:19.704Z,28.9
2022-08-29T12:33:23.241Z,27.8
2022-08-29T12:38:27.791Z,29.1
2022-08-29T12:43:32.296Z,29.2
2022-08-29T12:48:35.871Z,30
2022-08-29T12:53:40.429Z,29.2
2022-08-29T12:58:44.988Z,30.1
2022-08-29T13:03:48.491Z,29.7
2022-08-29T13:08:53.104Z,29.3
2022-08-29T13:13:57.598Z,28.7
2022-08-29T13:19:11.465Z,29.2
2022-08-29T13:24:05.681Z,28.9
2022-08-29T13:29:10.228Z,30.4
2022-08-29T13:34:14.769Z,30
2022-08-29T13:39:18.373Z,30.6
2022-08-29T13:44:22.861Z,29.1
2022-08-29T13:49:27.389Z,30
2022-08-29T13:54:30.918Z,30
2022-08-29T13:59:36.068Z,29.8
2022-08-29T14:04:41.417Z,30.2
2022-08-29T14:09:43.618Z,29.8
2022-08-29T14:14:48.125Z,27.8
2022-08-29T14:19:52.646Z,29.6
2022-08-29T14:24:57.174Z,28
2022-08-29T14:30:00.752Z,29.1
2022-08-29T14:35:05.385Z,29.4
2022-08-29T14:40:09.880Z,29.8
2022-08-29T14:45:13.361Z,29.4
2022-08-29T14:50:17.916Z,29.4
2022-08-29T14:55:22.478Z,28.3
2022-08-29T15:00:26.002Z,26.8
2022-08-29T15:05:30.522Z,26.7
2022-08-29T15:10:35.078Z,28.1
2022-08-29T15:15:38.664Z,29.6
2022-08-29T15:20:46.663Z,29.3
2022-08-29T15:25:52.059Z,27.8
2022-08-29T15:30:52.272Z,28.7
2022-08-29T15:35:55.768Z,28.5
2022-08-29T15:41:00.338Z,28.6
2022-08-29T15:46:04.912Z,27.9
2022-08-29T15:51:08.416Z,27.4
2022-08-29T15:56:11.991Z,27
2022-08-29T16:01:16.512Z,27.3
2022-08-29T16:06:21.045Z,27.3
2022-08-29T16:11:25.619Z,28
2022-08-29T16:16:29.141Z,26.1
2022-08-29T16:21:33.681Z,26.4
2022-08-29T16:26:40.666Z,26.6
2022-08-29T16:31:41.735Z,26.3
2022-08-29T16:36:46.267Z,26.5
2022-08-29T16:41:50.808Z,26.6
2022-08-29T16:46:54.371Z,26.5
2022-08-29T16:51:58.932Z,26.7
2022-08-29T16:57:03.466Z,26.6
2022-08-29T17:02:07.060Z,26
2022-08-29T17:07:11.519Z,25.4
2022-08-29T17:12:16.289Z,25.5
2022-08-29T17:17:20.560Z,25.2
2022-08-29T17:22:24.154Z,25.1
2022-08-29T17:27:30.242Z,24.9
2022-08-29T17:32:33.256Z,24.8
2022-08-29T17:37:36.755Z,24.6
2022-08-29T17:42:41.301Z,24.6
2022-08-29T17:47:45.847Z,24.5
2022-08-29T17:52:49.396Z,24.1
2022-08-29T17:57:53.918Z,23.7
2022-08-29T18:02:58.616Z,23.5
2022-08-29T18:08:01.999Z,23.2
2022-08-29T18:13:06.508Z,22.9
2022-08-29T18:18:11.043Z,22.7
2022-08-29T18:23:15.601Z,22.4
2022-08-29T18:28:19.158Z,22.1
2022-08-29T18:33:28.485Z,21.9
2022-08-29T18:38:28.178Z,21.7
2022-08-29T18:43:31.734Z,21.5
2022-08-29T18:48:36.300Z,21.3
2022-08-29T18:53:40.797Z,21.1
2022-08-29T18:58:44.411Z,21.1
2022-08-29T19:03:48.914Z,20.9
2022-08-29T19:08:53.453Z,20.8
2022-08-29T19:13:57.001Z,20.6
2022-08-29T19:19:01.510Z,20.5
2022-08-29T19:24:06.068Z,20.6
2022-08-29T19:29:10.575Z,20.6
2022-08-29T19:34:14.165Z,20.6
2022-08-29T19:39:18.708Z,20.5
2022-08-29T19:44:23.242Z,20.4
2022-08-29T19:49:26.757Z,20.2
2022-08-29T19:54:31.284Z,20.1
2022-08-29T19:59:35.821Z,20
2022-08-29T20:04:39.390Z,20
2022-08-29T20:09:43.920Z,20
2022-08-29T20:14:47.511Z,20.1
2022-08-29T20:19:51.978Z,20.1
2022-08-29T20:24:56.554Z,20
2022-08-29T20:30:00.138Z,19.9
2022-08-29T20:35:04.618Z,19.8
2022-08-29T20:40:09.162Z,19.8
2022-08-29T20:45:12.731Z,19.6
2022-08-29T20:50:17.293Z,19.5
2022-08-29T20:55:21.789Z,19.5
2022-08-29T21:00:25.349Z,19.5
2022-08-29T21:05:29.874Z,19.5
2022-08-29T21:10:34.389Z,19.5
2022-08-29T21:15:38.923Z,19.5
2022-08-29T21:20:53.478Z,19.5
2022-08-29T21:25:47.059Z,19.5
2022-08-29T21:30:51.529Z,19.5
2022-08-29T21:35:55.341Z,19.4
2022-08-29T21:40:59.598Z,19.3
2022-08-29T21:46:04.178Z,19.3
2022-08-29T21:51:07.745Z,19.1
2022-08-29T21:56:12.242Z,18.9
2022-08-29T22:01:16.777Z,18.8
2022-08-29T22:06:20.305Z,18.8
2022-08-29T22:11:24.892Z,18.8
2022-08-29T22:16:29.464Z,18.8
2022-08-29T22:21:33.931Z,18.8
2022-08-29T22:26:37.464Z,18.9
2022-08-29T22:31:42.444Z,19
2022-08-29T22:36:46.531Z,18.9
2022-08-29T22:41:50.106Z,18.8
2022-08-29T22:46:54.743Z,18.7
2022-08-29T22:51:59.190Z,18.7
2022-08-29T22:57:02.743Z,18.9
2022-08-29T23:02:07.229Z,18.9
2022-08-29T23:07:12.137Z,18.9
2022-08-29T23:12:15.349Z,18.8
2022-08-29T23:17:19.881Z,18.8
2022-08-29T23:22:24.381Z,18.7
2022-08-29T23:27:28.968Z,18.7
2022-08-29T23:32:32.496Z,18.7
2022-08-29T23:37:37.022Z,18.6
2022-08-29T23:42:41.654Z,18.6
2022-08-29T23:47:45.221Z,18.6
2022-08-29T23:52:49.740Z,18.7
2022-08-29T23:57:54.244Z,18.5
